Time;durP1;ratioP1;P1;durP2;ratioP2;P2;SDS_P1;SDS_P2;PMS_P1;PMS_P2;Temp;Humidity;BMP_temperature;BMP_pressure;BME280_temperature;BME280_humidity;BME280_pressure;Samples;Min_cycle;Max_cycle;Signal;HPM_P1;HPM_P2
2023/01/10 04:00:40;;;;;;;19.58;3.42;;;6.50;99.90;;;;;;5979263;23;20030;-77
2023/01/10 04:03:08;;;;;;;21.52;4.03;;;6.50;99.90;;;;;;6067925;23;20067;-77
2023/01/10 04:05:34;;;;;;;22.73;3.70;;;6.50;99.90;;;;;;6042726;23;20026;-78
2023/01/10 04:08:00;;;;;;;19.98;3.70;;;6.50;99.90;;;;;;6068476;23;20344;-77
2023/01/10 04:10:26;;;;;;;22.98;4.53;;;6.50;99.90;;;;;;6040175;23;20026;-77
2023/01/10 04:12:51;;;;;;;22.60;4.88;;;6.50;99.90;;;;;;6015378;23;20022;-78
2023/01/10 04:15:17;;;;;;;24.92;4.88;;;6.50;99.90;;;;;;6041632;23;20091;-78
2023/01/10 04:17:44;;;;;;;25.75;4.72;;;6.40;99.90;;;;;;6016974;23;20015;-78
2023/01/10 04:20:10;;;;;;;17.77;4.38;;;6.40;99.90;;;;;;6016492;23;20019;-77
2023/01/10 04:22:36;;;;;;;29.90;4.80;;;6.40;99.90;;;;;;6041283;23;20455;-77
2023/01/10 04:25:01;;;;;;;23.75;4.40;;;6.40;99.90;;;;;;6041844;23;20011;-78
2023/01/10 04:27:27;;;;;;;26.65;4.97;;;6.40;99.90;;;;;;6041601;23;20011;-77
2023/01/10 04:29:53;;;;;;;24.02;5.70;;;6.40;99.90;;;;;;6016298;23;20018;-78
2023/01/10 04:32:18;;;;;;;28.38;4.82;;;6.30;99.90;;;;;;6015791;23;20094;-76
2023/01/10 04:34:44;;;;;;;27.05;4.25;;;6.30;99.90;;;;;;6015875;23;20050;-76
2023/01/10 04:37:10;;;;;;;30.85;4.20;;;6.30;99.90;;;;;;6015849;23;20102;-78
2023/01/10 04:39:35;;;;;;;27.42;4.78;;;6.30;99.90;;;;;;6016416;23;20050;-77
2023/01/10 04:42:01;;;;;;;22.48;4.35;;;6.30;99.90;;;;;;6015680;23;20023;-77
2023/01/10 04:44:26;;;;;;;21.00;3.60;;;6.30;99.90;;;;;;6015932;23;20022;-78
2023/01/10 04:46:52;;;;;;;24.70;4.13;;;6.20;99.90;;;;;;6016390;23;20103;-76
2023/01/10 04:49:17;;;;;;;31.63;5.05;;;6.20;99.90;;;;;;5992340;23;20023;-77
2023/01/10 04:51:43;;;;;;;29.80;4.10;;;6.20;99.90;;;;;;6041409;23;20082;-76
2023/01/10 04:54:09;;;;;;;27.95;4.18;;;6.20;99.90;;;;;;6015754;23;20350;-79
2023/01/10 04:56:34;;;;;;;26.48;4.28;;;6.20;99.90;;;;;;6041818;23;20023;-76
2023/01/10 04:59:00;;;;;;;30.50;4.70;;;6.20;99.90;;;;;;6015681;23;20026;-76
2023/01/10 05:01:26;;;;;;;33.30;4.40;;;6.20;99.90;;;;;;6040639;23;20019;-78
2023/01/10 05:03:54;;;;;;;32.17;4.47;;;6.20;99.90;;;;;;6015901;23;20019;-79
2023/01/10 05:06:21;;;;;;;27.95;3.30;;;6.20;99.90;;;;;;6015645;23;20016;-77
2023/01/10 05:08:47;;;;;;;20.95;3.83;;;6.20;99.90;;;;;;6041284;23;20090;-78
2023/01/10 05:11:13;;;;;;;21.38;3.63;;;6.30;99.90;;;;;;6015686;23;20050;-77
2023/01/10 05:13:39;;;;;;;27.95;3.85;;;6.30;99.90;;;;;;6040901;23;20015;-78
2023/01/10 05:16:05;;;;;;;19.38;3.20;;;6.30;99.90;;;;;;6016419;23;20098;-78
2023/01/10 05:18:31;;;;;;;22.45;4.50;;;6.30;99.90;;;;;;5992361;23;20019;-78
2023/01/10 05:21:04;;;;;;;24.80;3.75;;;6.40;99.90;;;;;;6015576;23;20093;-78
2023/01/10 05:23:30;;;;;;;29.27;4.82;;;6.40;99.90;;;;;;6015855;23;20027;-79
2023/01/10 05:25:56;;;;;;;28.23;4.88;;;6.40;99.90;;;;;;6015597;23;20023;-77
2023/01/10 05:28:21;;;;;;;27.30;4.15;;;6.40;99.90;;;;;;6040838;23;20015;-78
2023/01/10 05:30:48;;;;;;;22.90;5.13;;;6.40;99.90;;;;;;6015276;23;20046;-77
2023/01/10 05:33:14;;;;;;;28.60;4.30;;;6.40;99.90;;;;;;6040642;23;20082;-76
2023/01/10 05:35:39;;;;;;;25.83;4.15;;;6.40;99.90;;;;;;6040603;23;20496;-78
2023/01/10 05:38:05;;;;;;;27.73;4.00;;;6.30;99.90;;;;;;6015327;23;20019;-77
2023/01/10 05:40:31;;;;;;;14.55;2.85;;;6.30;99.90;;;;;;6015533;23;20019;-79
2023/01/10 05:42:56;;;;;;;16.98;2.42;;;6.30;99.90;;;;;;6040966;23;20090;-78
2023/01/10 05:45:22;;;;;;;19.50;3.35;;;6.30;99.90;;;;;;6015815;23;20016;-79
2023/01/10 05:47:47;;;;;;;27.58;5.25;;;6.30;99.90;;;;;;6015701;23;20090;-79
2023/01/10 05:50:13;;;;;;;20.83;3.53;;;6.40;99.90;;;;;;6040511;23;20097;-79
2023/01/10 05:52:39;;;;;;;22.40;4.28;;;6.30;99.90;;;;;;6015720;23;20090;-79
2023/01/10 05:55:05;;;;;;;27.30;6.05;;;6.30;99.90;;;;;;6015565;23;20341;-78
2023/01/10 05:57:30;;;;;;;20.17;4.75;;;6.30;99.90;;;;;;6015405;23;20048;-78
2023/01/10 05:59:56;;;;;;;21.52;4.07;;;6.30;99.90;;;;;;6015359;23;20391;-79
2023/01/10 06:02:22;;;;;;;33.50;4.82;;;6.30;99.90;;;;;;6040875;23;20054;-82
2023/01/10 06:04:48;;;;;;;28.63;3.97;;;6.30;99.90;;;;;;5992077;23;20019;-78
2023/01/10 06:07:14;;;;;;;25.58;4.60;;;6.20;99.90;;;;;;6015085;23;20088;-79
2023/01/10 06:09:39;;;;;;;29.48;5.03;;;6.20;99.90;;;;;;6015169;23;20389;-78
2023/01/10 06:12:05;;;;;;;23.15;3.50;;;6.20;99.90;;;;;;6015079;23;20030;-78
2023/01/10 06:14:31;;;;;;;23.13;4.07;;;6.10;99.90;;;;;;6015258;23;20015;-79
2023/01/10 06:16:56;;;;;;;33.78;5.85;;;6.10;99.90;;;;;;6015142;23;20015;-78
2023/01/10 06:19:22;;;;;;;25.70;4.63;;;6.00;99.90;;;;;;6015102;23;20019;-77
2023/01/10 06:21:47;;;;;;;24.20;5.45;;;6.00;99.90;;;;;;6040397;23;20071;-76
2023/01/10 06:24:13;;;;;;;27.80;4.95;;;5.90;99.90;;;;;;5991749;23;20345;-77
2023/01/10 06:26:38;;;;;;;33.92;5.45;;;5.90;99.90;;;;;;6015383;23;20019;-78
2023/01/10 06:29:04;;;;;;;23.70;4.15;;;5.80;99.90;;;;;;6015162;23;20019;-80
2023/01/10 06:31:30;;;;;;;37.50;4.60;;;5.80;99.90;;;;;;6014740;23;20450;-78
2023/01/10 06:33:55;;;;;;;31.90;5.15;;;5.70;99.90;;;;;;6040821;23;20061;-78
2023/01/10 06:36:21;;;;;;;32.67;5.47;;;5.70;99.90;;;;;;5991996;23;20523;-78
2023/01/10 06:38:47;;;;;;;28.63;4.53;;;5.60;99.90;;;;;;6014798;23;20051;-78
2023/01/10 06:41:12;;;;;;;36.60;6.05;;;5.60;99.90;;;;;;6014587;23;20015;-78
2023/01/10 06:43:40;;;;;;;34.90;6.20;;;5.60;99.90;;;;;;6015132;23;20030;-77
2023/01/10 06:46:08;;;;;;;34.53;5.35;;;5.50;99.90;;;;;;6040249;23;20098;-77
2023/01/10 06:48:35;;;;;;;33.38;5.55;;;5.50;99.90;;;;;;6015529;23;20075;-79
2023/01/10 06:51:00;;;;;;;34.80;5.28;;;5.50;99.90;;;;;;6015199;23;20023;-78
2023/01/10 06:53:26;;;;;;;27.42;5.45;;;5.50;99.90;;;;;;6040462;23;20026;-78
2023/01/10 06:55:53;;;;;;;36.33;5.82;;;5.50;99.90;;;;;;6040164;23;20087;-79
2023/01/10 06:58:19;;;;;;;25.38;5.10;;;5.60;99.90;;;;;;5991516;23;20015;-79
2023/01/10 07:00:45;;;;;;;37.13;4.75;;;5.60;99.90;;;;;;6014905;23;20094;-79
2023/01/10 07:03:10;;;;;;;35.67;4.85;;;5.70;99.90;;;;;;6040704;23;20019;-78
2023/01/10 07:05:36;;;;;;;35.30;6.25;;;5.60;99.90;;;;;;6040738;23;20015;-80
2023/01/10 07:08:02;;;;;;;29.13;5.90;;;5.70;99.90;;;;;;6015121;23;20050;-81
2023/01/10 07:10:27;;;;;;;39.80;5.32;;;5.70;99.90;;;;;;6014744;23;20015;-80
2023/01/10 07:12:54;;;;;;;32.05;5.20;;;5.70;99.90;;;;;;6015217;23;20061;-79
2023/01/10 07:15:20;;;;;;;36.97;6.20;;;5.70;99.90;;;;;;6015129;23;20019;-79
2023/01/10 07:17:45;;;;;;;33.78;5.00;;;5.70;99.90;;;;;;6015055;23;20460;-79
2023/01/10 07:20:11;;;;;;;40.33;5.85;;;5.70;99.90;;;;;;6014994;23;20326;-78
2023/01/10 07:22:37;;;;;;;32.00;5.38;;;5.70;99.90;;;;;;6014895;23;20445;-79
2023/01/10 07:25:03;;;;;;;31.70;5.13;;;5.60;99.90;;;;;;6014988;23;20019;-80
2023/01/10 07:27:31;;;;;;;38.20;6.28;;;5.70;99.90;;;;;;6040260;23;20019;-81
2023/01/10 07:29:57;;;;;;;46.88;7.45;;;5.70;99.90;;;;;;5992356;23;20324;-79
2023/01/10 07:32:22;;;;;;;37.58;5.38;;;5.70;99.90;;;;;;6040564;23;20015;-78
2023/01/10 07:34:52;;;;;;;33.78;5.65;;;5.70;99.90;;;;;;6039913;23;20504;-79
2023/01/10 07:37:18;;;;;;;35.50;6.57;;;5.70;99.90;;;;;;6014996;23;20018;-80
2023/01/10 07:39:44;;;;;;;33.72;4.75;;;5.70;99.90;;;;;;5991964;23;20016;-78
2023/01/10 07:42:09;;;;;;;39.10;7.50;;;5.60;99.90;;;;;;6014845;23;20037;-79
2023/01/10 07:44:35;;;;;;;42.15;7.07;;;5.60;99.90;;;;;;6015746;23;20030;-78
2023/01/10 07:47:01;;;;;;;30.30;5.03;;;5.60;99.90;;;;;;6016263;23;20016;-80
2023/01/10 07:49:26;;;;;;;41.88;5.80;;;5.60;99.90;;;;;;5993571;23;20016;-80
2023/01/10 07:51:52;;;;;;;31.80;5.85;;;5.50;99.90;;;;;;6017274;23;20019;-79
2023/01/10 07:54:18;;;;;;;36.63;5.80;;;5.50;99.90;;;;;;6016862;23;20434;-79
2023/01/10 07:56:46;;;;;;;25.83;5.07;;;5.50;99.90;;;;;;6017085;23;20023;-80
2023/01/10 07:59:12;;;;;;;34.63;5.78;;;5.50;99.90;;;;;;6016261;23;20046;-79
2023/01/10 08:01:38;;;;;;;33.63;4.97;;;5.50;99.90;;;;;;6016593;23;20420;-80
2023/01/10 08:04:04;;;;;;;29.95;5.18;;;5.50;99.90;;;;;;5993119;23;20020;-81
2023/01/10 08:06:30;;;;;;;30.83;4.40;;;5.50;99.90;;;;;;6016695;23;20019;-78
2023/01/10 08:08:55;;;;;;;31.20;5.38;;;5.50;99.90;;;;;;6015441;23;20016;-80
2023/01/10 08:11:21;;;;;;;35.17;5.25;;;5.50;99.90;;;;;;6041670;23;20414;-79
2023/01/10 08:13:47;;;;;;;30.40;4.75;;;5.50;99.90;;;;;;6016591;23;20016;-79
2023/01/10 08:16:14;;;;;;;30.15;5.15;;;5.50;99.90;;;;;;6017323;23;20035;-78
2023/01/10 08:18:42;;;;;;;38.35;5.40;;;5.60;99.90;;;;;;6015966;23;20026;-80
2023/01/10 08:21:08;;;;;;;27.95;4.95;;;5.60;99.90;;;;;;6016001;23;20012;-78
2023/01/10 08:23:34;;;;;;;29.00;5.35;;;5.70;99.90;;;;;;6016475;23;20015;-79
2023/01/10 08:26:00;;;;;;;23.23;4.82;;;5.80;99.90;;;;;;5993231;23;20094;-78
2023/01/10 08:28:26;;;;;;;29.10;3.78;;;5.80;99.90;;;;;;6017334;23;20023;-79
2023/01/10 08:30:54;;;;;;;23.02;5.88;;;5.80;99.90;;;;;;5993826;23;20011;-79
2023/01/10 08:33:22;;;;;;;35.33;4.93;;;5.90;99.90;;;;;;6016999;23;20446;-80
2023/01/10 08:35:48;;;;;;;33.80;5.70;;;6.00;99.90;;;;;;6016592;23;20015;-78
2023/01/10 08:38:14;;;;;;;33.60;6.55;;;6.00;99.90;;;;;;6042231;23;20146;-77
2023/01/10 08:40:39;;;;;;;26.20;6.25;;;5.90;99.90;;;;;;6015308;23;20453;-78
2023/01/10 08:43:08;;;;;;;26.33;5.18;;;5.90;99.90;;;;;;6041462;23;20015;-77
2023/01/10 08:45:34;;;;;;;31.83;4.13;;;6.00;99.90;;;;;;6016053;23;20017;-78
2023/01/10 08:48:00;;;;;;;30.05;5.25;;;6.00;99.90;;;;;;6041680;23;20011;-80
2023/01/10 08:50:26;;;;;;;32.13;4.95;;;6.10;99.90;;;;;;6016244;23;20015;-80
2023/01/10 08:52:52;;;;;;;25.65;4.30;;;6.10;99.90;;;;;;6017087;23;20026;-78
2023/01/10 08:55:18;;;;;;;33.65;5.28;;;6.10;99.90;;;;;;6017341;23;20022;-78
2023/01/10 08:57:44;;;;;;;33.97;5.28;;;6.10;99.90;;;;;;6016730;23;20020;-79
2023/01/10 09:00:11;;;;;;;28.65;5.35;;;6.20;99.90;;;;;;6017328;23;20438;-80
2023/01/10 09:02:38;;;;;;;24.92;4.60;;;6.20;99.90;;;;;;6016727;23;20019;-78
2023/01/10 09:05:04;;;;;;;29.20;5.90;;;6.20;99.90;;;;;;6041380;23;20346;-79
2023/01/10 09:07:30;;;;;;;27.75;4.80;;;6.20;99.90;;;;;;6016462;23;20018;-78
2023/01/10 09:09:55;;;;;;;32.38;4.88;;;6.30;99.90;;;;;;6017013;23;20022;-80
2023/01/10 09:15:05;;;;;;;31.85;4.55;;;6.30;99.90;;;;;;6040804;23;20133;-78
2023/01/10 09:17:31;;;;;;;33.10;5.25;;;6.30;99.90;;;;;;6015968;23;20015;-77
2023/01/10 09:19:57;;;;;;;27.17;4.57;;;6.40;99.90;;;;;;6041723;23;20315;-78
2023/01/10 09:22:22;;;;;;;37.13;6.40;;;6.40;99.90;;;;;;6016924;23;20019;-79
2023/01/10 09:24:49;;;;;;;32.08;4.70;;;6.40;99.90;;;;;;6016063;23;20445;-78
2023/01/10 09:27:14;;;;;;;28.88;4.63;;;6.40;99.90;;;;;;6016642;23;20015;-78
2023/01/10 09:29:40;;;;;;;24.40;5.38;;;6.50;99.90;;;;;;6018502;23;20007;-81
2023/01/10 09:32:06;;;;;;;31.35;4.95;;;6.50;99.90;;;;;;6041177;23;20390;-79
2023/01/10 09:34:32;;;;;;;24.90;4.50;;;6.50;99.90;;;;;;6014126;23;20066;-79
2023/01/10 09:36:57;;;;;;;31.40;4.75;;;6.50;99.90;;;;;;6014402;23;20400;-78
2023/01/10 09:39:24;;;;;;;31.20;4.70;;;6.50;99.90;;;;;;6014689;23;20442;-80
2023/01/10 09:42:17;;;;;;;29.35;5.57;;;6.50;99.90;;;;;;6039660;23;20079;-78
2023/01/10 09:44:56;;;;;;;28.45;4.13;;;6.50;99.90;;;;;;6014672;23;20042;-79
2023/01/10 09:47:53;;;;;;;28.48;3.85;;;6.60;99.90;;;;;;6014670;23;20075;-79
2023/01/10 09:50:23;;;;;;;;;;;6.60;99.90;;;;;;6017479;23;20015;-81
2023/01/10 09:53:18;;;;;;;33.35;4.60;;;6.60;99.90;;;;;;6016471;23;19917;-80
2023/01/10 09:55:47;;;;;;;26.73;4.32;;;6.60;99.90;;;;;;6006778;23;20026;-80
2023/01/10 09:58:16;;;;;;;25.63;4.63;;;6.60;99.90;;;;;;6017135;23;20364;-80
2023/01/10 10:00:45;;;;;;;25.58;4.15;;;6.70;99.90;;;;;;6016233;23;21348;-80
2023/01/10 10:03:20;;;;;;;28.55;6.28;;;6.70;99.90;;;;;;6016138;23;20050;-79
2023/01/10 10:05:46;;;;;;;29.30;5.03;;;6.60;99.90;;;;;;6017066;23;20070;-79
2023/01/10 10:08:16;;;;;;;24.73;4.00;;;6.70;99.90;;;;;;6041160;23;20015;-78
2023/01/10 10:11:04;;;;;;;23.50;4.25;;;6.70;99.90;;;;;;6015684;23;20022;-77
2023/01/10 10:13:48;;;;;;;33.25;4.93;;;6.80;99.90;;;;;;6016173;23;20464;-78
2023/01/10 10:16:38;;;;;;;35.35;6.90;;;6.80;99.90;;;;;;6041362;23;20048;-78
2023/01/10 10:19:11;;;;;;;36.38;5.18;;;6.80;99.90;;;;;;6015790;23;20011;-80
2023/01/10 10:22:07;;;;;;;31.48;5.47;;;6.80;99.90;;;;;;6015602;23;20030;-82
2023/01/10 10:25:10;;;;;;;35.80;6.28;;;6.80;99.90;;;;;;5992507;23;20327;-79
2023/01/10 10:28:03;;;;;;;30.75;6.95;;;6.80;99.90;;;;;;6015970;23;20023;-77
2023/01/10 10:30:55;;;;;;;32.85;6.43;;;6.80;99.90;;;;;;6016289;23;20011;-77
2023/01/10 10:33:50;;;;;;;31.02;6.90;;;6.90;99.90;;;;;;6016294;23;20086;-79
2023/01/10 10:36:29;;;;;;;40.35;7.47;;;6.80;99.90;;;;;;5967468;23;20386;-78
2023/01/10 10:39:00;;;;;;;34.45;7.75;;;6.90;99.90;;;;;;6042297;23;20019;-79
2023/01/10 10:41:28;;;;;;;43.47;9.10;;;6.90;99.90;;;;;;6025908;23;20011;-74
2023/01/10 10:43:54;;;;;;;36.55;9.30;;;6.90;99.90;;;;;;6003872;23;20019;-79
2023/01/10 10:46:21;;;;;;;38.47;9.88;;;6.80;99.90;;;;;;5993437;23;20015;-78
2023/01/10 10:48:56;;;;;;;38.00;10.00;;;6.80;99.90;;;;;;6016788;23;20020;-79
2023/01/10 10:51:47;;;;;;;30.20;8.48;;;6.90;99.90;;;;;;6017297;23;20414;-79
2023/01/10 10:54:15;;;;;;;32.72;8.65;;;6.80;99.90;;;;;;6016359;23;20446;-80
2023/01/10 10:56:42;;;;;;;44.83;9.00;;;6.80;99.90;;;;;;6015682;23;20331;-79
2023/01/10 10:59:11;;;;;;;37.58;8.00;;;6.80;99.90;;;;;;5992631;23;20446;-78
2023/01/10 11:01:36;;;;;;;37.65;9.82;;;6.90;99.90;;;;;;6040480;23;20069;-79
2023/01/10 11:04:09;;;;;;;36.92;8.88;;;6.80;99.90;;;;;;6015245;23;20094;-79
2023/01/10 11:06:37;;;;;;;32.90;8.95;;;6.80;99.90;;;;;;6015104;23;20015;-77
2023/01/10 11:09:05;;;;;;;38.22;8.80;;;6.80;99.90;;;;;;6014690;23;20019;-76
2023/01/10 11:11:34;;;;;;;34.67;8.20;;;6.80;99.90;;;;;;6014784;23;20019;-79
2023/01/10 11:14:05;;;;;;;38.58;9.05;;;6.80;99.90;;;;;;6015118;23;20019;-78
2023/01/10 11:16:43;;;;;;;29.13;8.25;;;6.70;99.90;;;;;;6015298;23;20037;-78
2023/01/10 11:19:24;;;;;;;42.70;8.20;;;6.70;99.90;;;;;;6015022;23;20055;-78
2023/01/10 11:21:54;;;;;;;32.47;7.30;;;6.70;99.90;;;;;;6040503;23;20019;-77
2023/01/10 11:24:27;;;;;;;31.90;7.85;;;6.70;99.90;;;;;;5991521;23;20015;-80
2023/01/10 11:26:55;;;;;;;30.98;7.18;;;6.70;99.90;;;;;;6041160;23;20038;-82
2023/01/10 11:29:57;;;;;;;41.42;8.32;;;6.70;99.90;;;;;;6015394;23;20077;-77
2023/01/10 11:32:40;;;;;;;28.90;6.80;;;6.70;99.90;;;;;;5939396;23;20052;-78
2023/01/10 11:35:16;;;;;;;33.80;8.45;;;6.70;99.90;;;;;;6015439;23;20045;-77
2023/01/10 11:37:42;;;;;;;26.40;7.90;;;6.70;99.90;;;;;;6016212;23;20349;-77
2023/01/10 11:40:38;;;;;;;25.65;6.38;;;6.60;99.90;;;;;;6041086;23;20015;-80
2023/01/10 11:43:24;;;;;;;57.72;9.13;;;6.60;99.90;;;;;;5993293;23;20026;-78
2023/01/10 11:46:01;;;;;;;28.13;7.57;;;6.60;99.90;;;;;;6041173;23;20030;-80
2023/01/10 11:48:43;;;;;;;37.13;7.40;;;6.60;99.90;;;;;;6015526;23;20019;-86
2023/01/10 11:51:27;;;;;;;36.47;6.72;;;6.60;99.90;;;;;;6016361;23;20078;-82
2023/01/10 11:54:02;;;;;;;30.25;6.35;;;6.60;99.90;;;;;;6042178;23;20016;-80
2023/01/10 11:56:32;;;;;;;40.78;6.32;;;6.60;99.90;;;;;;6041723;23;20082;-80
2023/01/10 11:59:07;;;;;;;31.80;6.63;;;6.60;99.90;;;;;;6016725;23;20018;-81
2023/01/10 12:01:57;;;;;;;32.75;6.63;;;6.70;99.90;;;;;;6016118;23;20043;-79
2023/01/10 12:04:24;;;;;;;26.50;6.78;;;6.60;99.90;;;;;;6016228;23;20019;-80
2023/01/10 12:06:54;;;;;;;27.35;5.90;;;6.60;99.90;;;;;;6041553;23;20450;-78
2023/01/10 12:09:41;;;;;;;29.10;6.13;;;6.60;99.90;;;;;;6041625;23;20007;-79
2023/01/10 12:12:24;;;;;;;30.20;5.70;;;6.60;99.90;;;;;;6016353;23;20054;-79
2023/01/10 12:14:51;;;;;;;25.08;5.80;;;6.60;99.90;;;;;;6041173;23;20019;-79
2023/01/10 12:17:36;;;;;;;35.90;7.45;;;6.60;99.90;;;;;;6041650;23;20019;-80
2023/01/10 12:20:05;;;;;;;38.80;6.85;;;6.60;99.90;;;;;;6015654;23;20346;-80
2023/01/10 12:22:35;;;;;;;32.13;6.00;;;6.60;99.90;;;;;;6015014;23;20015;-80
2023/01/10 12:25:13;;;;;;;29.38;6.63;;;6.60;99.90;;;;;;6041479;23;20094;-79
2023/01/10 12:27:39;;;;;;;32.08;7.43;;;6.60;99.90;;;;;;6041405;23;20066;-80
2023/01/10 12:30:11;;;;;;;35.40;6.75;;;6.60;99.90;;;;;;6015755;23;20016;-81
2023/01/10 12:32:50;;;;;;;36.92;5.93;;;6.60;99.90;;;;;;6015899;23;20477;-83
2023/01/10 12:35:32;;;;;;;38.88;6.38;;;6.70;99.90;;;;;;6017451;23;20098;-81
2023/01/10 12:44:09;;;;;;;28.35;6.18;;;6.60;99.90;;;;;;6042393;23;20044;-78
2023/01/10 12:44:10;;;;;;;36.40;5.85;;;6.60;99.90;;;;;;6017591;23;20024;-80
2023/01/10 12:47:04;;;;;;;26.23;6.07;;;6.60;99.90;;;;;;6017614;23;20015;-78
2023/01/10 12:49:34;;;;;;;30.25;6.60;;;6.60;99.90;;;;;;6017428;23;20067;-81
2023/01/10 12:52:06;;;;;;;36.83;7.70;;;6.60;99.90;;;;;;6017168;23;20030;-81
2023/01/10 12:54:32;;;;;;;31.15;6.20;;;6.60;99.90;;;;;;6017146;23;20019;-81
2023/01/10 12:57:01;;;;;;;23.00;5.90;;;6.60;99.90;;;;;;6042932;23;20049;-80
2023/01/10 12:59:37;;;;;;;31.80;6.75;;;6.60;99.90;;;;;;6017258;23;20046;-79
2023/01/10 13:02:06;;;;;;;35.60;8.13;;;6.60;99.90;;;;;;6040449;23;20018;-81
2023/01/10 13:04:35;;;;;;;23.73;6.43;;;6.60;99.90;;;;;;6042766;23;20020;-82
2023/01/10 13:07:02;;;;;;;27.30;4.75;;;6.60;99.90;;;;;;6042372;23;20083;-78
2023/01/10 13:09:30;;;;;;;26.02;6.95;;;6.60;99.90;;;;;;6017466;23;20027;-80
2023/01/10 13:12:23;;;;;;;23.45;5.85;;;6.70;99.90;;;;;;6017323;23;20027;-82
2023/01/10 13:15:05;;;;;;;22.35;4.95;;;6.60;99.90;;;;;;5994006;23;20450;-80
2023/01/10 13:17:30;;;;;;;27.30;4.82;;;6.60;99.90;;;;;;6042481;23;20087;-80
2023/01/10 13:20:14;;;;;;;29.17;5.13;;;6.60;99.90;;;;;;6042476;23;20468;-81
2023/01/10 13:22:41;;;;;;;28.65;6.60;;;6.60;99.90;;;;;;6017313;23;20019;-81
2023/01/10 13:25:20;;;;;;;27.40;5.03;;;6.60;99.90;;;;;;6017606;23;20394;-81
2023/01/10 13:27:50;;;;;;;28.52;5.82;;;6.50;99.90;;;;;;5993105;23;20023;-82
2023/01/10 13:30:51;;;;;;;34.28;5.55;;;6.60;99.90;;;;;;6042108;23;20019;-79
2023/01/10 13:33:24;;;;;;;28.23;5.07;;;6.60;99.90;;;;;;5997337;23;20098;-79
2023/01/10 13:35:52;;;;;;;26.05;5.10;;;6.60;99.90;;;;;;6042574;23;20015;-80
2023/01/10 13:38:36;;;;;;;22.38;3.58;;;6.60;99.90;;;;;;6041947;23;20014;-80
2023/01/10 13:43:17;;;;;;;22.67;4.55;;;6.50;99.90;;;;;;6016638;23;20022;-80
2023/01/10 13:44:14;;;;;;;33.78;4.93;;;6.50;99.90;;;;;;6016478;23;20019;-80
2023/01/10 13:46:49;;;;;;;33.80;4.38;;;6.60;99.90;;;;;;6016311;23;20026;-82
2023/01/10 13:49:24;;;;;;;29.23;4.85;;;6.50;99.90;;;;;;6016983;23;20078;-79
2023/01/10 13:52:09;;;;;;;;;;;6.50;99.90;;;;;;6017348;23;20022;-82
2023/01/10 13:54:34;;;;;;;28.40;5.13;;;6.50;99.90;;;;;;6042001;23;20284;-80
2023/01/10 13:57:00;;;;;;;30.35;4.78;;;6.50;99.90;;;;;;6016467;23;20129;-77
2023/01/10 14:02:28;;;;;;;30.55;4.47;;;6.40;99.90;;;;;;6041744;23;20434;-78
2023/01/10 14:05:02;;;;;;;22.55;4.10;;;6.40;99.90;;;;;;6016432;23;20457;-81
2023/01/10 14:07:53;;;;;;;19.90;3.40;;;6.40;99.90;;;;;;6016195;23;20054;-81
2023/01/10 14:10:22;;;;;;;31.88;4.97;;;6.40;99.90;;;;;;6015958;23;20016;-80
2023/01/10 14:13:08;;;;;;;21.95;3.63;;;6.40;99.90;;;;;;6015828;23;20019;-79
2023/01/10 14:15:44;;;;;;;24.92;3.75;;;6.40;99.90;;;;;;6016859;23;20026;-80
2023/01/10 14:18:21;;;;;;;20.30;3.50;;;6.40;99.90;;;;;;6016049;23;20054;-80
2023/01/10 14:20:59;;;;;;;32.25;4.80;;;6.40;99.90;;;;;;6016390;23;20022;-81
2023/01/10 14:23:36;;;;;;;28.85;3.78;;;6.40;99.90;;;;;;6041838;23;20468;-80
2023/01/10 14:26:02;;;;;;;21.25;3.97;;;6.40;99.90;;;;;;6016326;23;20011;-79
2023/01/10 14:28:31;;;;;;;20.65;3.22;;;6.40;99.90;;;;;;6041712;23;20035;-78
2023/01/10 14:31:08;;;;;;;20.70;4.03;;;6.40;99.90;;;;;;5992525;23;20022;-80
2023/01/10 14:33:35;;;;;;;23.42;3.55;;;6.40;99.90;;;;;;6015939;23;20019;-79
2023/01/10 14:36:12;;;;;;;25.33;4.60;;;6.40;99.90;;;;;;6015664;23;20018;-80
2023/01/10 14:38:38;;;;;;;23.77;4.07;;;6.40;99.90;;;;;;6041802;23;20011;-78
2023/01/10 14:41:34;;;;;;;19.40;3.88;;;6.50;99.90;;;;;;6015265;23;20090;-80
2023/01/10 14:44:28;;;;;;;22.02;3.78;;;6.50;99.90;;;;;;5976558;23;20015;-80
2023/01/10 14:47:03;;;;;;;24.95;3.78;;;6.50;99.90;;;;;;6015562;23;20511;-79
2023/01/10 14:49:47;;;;;;;21.95;4.38;;;6.50;99.90;;;;;;6016050;23;20015;-81
2023/01/10 14:52:22;;;;;;;23.25;3.60;;;6.50;99.90;;;;;;6015264;23;20026;-78
2023/01/10 14:55:00;;;;;;;22.98;3.28;;;6.50;99.90;;;;;;6015866;23;20011;-80
2023/01/10 14:57:25;;;;;;;24.35;3.20;;;6.50;99.90;;;;;;6016344;23;20023;-78
2023/01/10 15:00:02;;;;;;;27.40;4.28;;;6.60;99.90;;;;;;6041220;23;20034;-77
2023/01/10 15:02:29;;;;;;;33.67;4.97;;;6.60;99.90;;;;;;6016375;23;20045;-80
2023/01/10 15:05:19;;;;;;;24.08;3.90;;;6.60;99.90;;;;;;6041602;23;20438;-80
2023/01/10 15:07:45;;;;;;;23.75;5.05;;;6.60;99.90;;;;;;6016326;23;20014;-78
2023/01/10 15:10:23;;;;;;;19.73;3.53;;;6.60;99.90;;;;;;6016453;23;20094;-79
2023/01/10 15:12:52;;;;;;;19.23;3.72;;;6.60;99.90;;;;;;6015844;23;20062;-79
2023/01/10 15:15:26;;;;;;;23.77;3.60;;;6.60;99.90;;;;;;6041130;23;20381;-80
2023/01/10 15:17:52;;;;;;;28.33;4.05;;;6.60;99.90;;;;;;6015880;23;20019;-79
2023/01/10 15:20:19;;;;;;;22.60;3.80;;;6.60;99.90;;;;;;5992195;23;20104;-82
2023/01/10 15:23:03;;;;;;;26.38;4.43;;;6.70;99.90;;;;;;6041392;23;20019;-80
2023/01/10 15:25:38;;;;;;;26.52;4.22;;;6.70;99.90;;;;;;6041640;23;20022;-82
2023/01/10 15:28:11;;;;;;;24.10;4.07;;;6.70;99.90;;;;;;6041287;23;20023;-79
2023/01/10 15:30:37;;;;;;;18.00;4.57;;;6.60;99.90;;;;;;5992873;23;20283;-79
2023/01/10 15:33:08;;;;;;;19.90;3.67;;;6.60;99.90;;;;;;6015306;23;20015;-79
2023/01/10 15:35:34;;;;;;;24.52;4.72;;;6.60;99.90;;;;;;6041382;23;20008;-79
2023/01/10 15:38:15;;;;;;;21.90;4.63;;;6.50;99.90;;;;;;6015450;23;20468;-78
2023/01/10 15:40:42;;;;;;;26.48;3.80;;;6.50;99.90;;;;;;6015273;23;20011;-81
2023/01/10 15:43:16;;;;;;;20.15;3.90;;;6.50;99.90;;;;;;6040348;23;20015;-79
2023/01/10 15:45:43;;;;;;;36.33;5.03;;;6.50;99.90;;;;;;6040775;23;20067;-80
2023/01/10 15:48:35;;;;;;;24.10;4.28;;;6.50;99.90;;;;;;6042476;23;20082;-79
2023/01/10 15:51:33;;;;;;;26.10;4.28;;;6.40;99.90;;;;;;5997474;23;20067;-76
2023/01/10 15:54:02;;;;;;;22.13;4.28;;;6.40;99.90;;;;;;6044069;23;20067;-79
2023/01/10 15:56:45;;;;;;;25.80;4.28;;;6.30;99.90;;;;;;6015489;23;20015;-79
2023/01/10 15:59:29;;;;;;;33.60;4.10;;;6.30;99.90;;;;;;6014937;23;20346;-79
2023/01/10 16:02:16;;;;;;;28.08;4.80;;;6.30;99.90;;;;;;6039675;23;20070;-78
2023/01/10 16:04:43;;;;;;;26.63;4.70;;;6.30;99.90;;;;;;5995206;23;20015;-80
2023/01/10 16:07:29;;;;;;;23.75;4.82;;;6.30;99.90;;;;;;6040249;23;20015;-80
2023/01/10 16:10:06;;;;;;;21.10;4.57;;;6.20;99.90;;;;;;5992771;23;20346;-81
2023/01/10 16:15:27;;;;;;;32.17;6.00;;;6.20;99.90;;;;;;6039723;23;20019;-80
2023/01/10 16:17:52;;;;;;;23.55;4.07;;;6.20;99.90;;;;;;6042024;23;20030;-80
2023/01/10 16:20:40;;;;;;;29.05;4.72;;;6.20;99.90;;;;;;6016909;23;20330;-79
2023/01/10 16:23:14;;;;;;;29.23;4.95;;;6.20;99.90;;;;;;6017335;23;20348;-80
2023/01/10 16:25:45;;;;;;;23.48;4.95;;;6.10;99.90;;;;;;6016541;23;20091;-83
2023/01/10 16:28:14;;;;;;;23.00;4.60;;;6.10;99.90;;;;;;6016405;23;20090;-80
2023/01/10 16:30:44;;;;;;;28.33;4.97;;;6.10;99.90;;;;;;6016340;23;20011;-80
2023/01/10 16:33:17;;;;;;;22.90;4.70;;;6.10;99.90;;;;;;6016457;23;20046;-79
2023/01/10 16:35:44;;;;;;;26.10;5.75;;;6.10;99.90;;;;;;6017347;23;20339;-82
2023/01/10 16:38:11;;;;;;;35.13;4.65;;;6.10;99.90;;;;;;6016984;23;20019;-82
2023/01/10 16:40:41;;;;;;;28.55;5.57;;;6.10;99.90;;;;;;6043041;23;20016;-81
2023/01/10 16:43:18;;;;;;;21.88;4.63;;;6.10;99.90;;;;;;6042793;23;20334;-80
2023/01/10 16:45:49;;;;;;;23.98;4.93;;;6.10;99.90;;;;;;6017508;23;20012;-79
2023/01/10 16:48:16;;;;;;;30.92;4.90;;;6.10;99.90;;;;;;6016586;23;20016;-82
2023/01/10 16:50:42;;;;;;;26.17;4.25;;;6.10;99.90;;;;;;6017444;23;20019;-78
2023/01/10 16:53:12;;;;;;;27.17;4.60;;;6.10;99.90;;;;;;6016724;23;20150;-80
2023/01/10 16:55:41;;;;;;;19.48;4.90;;;6.10;99.90;;;;;;6042921;23;20114;-78
2023/01/10 16:58:09;;;;;;;25.25;3.90;;;6.10;99.90;;;;;;6044904;23;20015;-83
2023/01/10 17:00:35;;;;;;;25.42;5.28;;;6.20;99.90;;;;;;6019296;23;20007;-82
2023/01/10 17:03:05;;;;;;;17.73;4.00;;;6.20;99.90;;;;;;6020665;23;20434;-87
2023/01/10 17:05:32;;;;;;;21.00;4.28;;;6.20;99.90;;;;;;6046272;23;20011;-83
2023/01/10 17:07:58;;;;;;;23.80;4.95;;;6.20;99.90;;;;;;6019470;23;20015;-82
2023/01/10 17:10:24;;;;;;;20.55;3.95;;;6.20;99.90;;;;;;5995129;23;20012;-82
2023/01/10 17:12:53;;;;;;;20.13;4.40;;;6.20;99.90;;;;;;6044792;23;20033;-83
2023/01/10 17:15:19;;;;;;;18.52;4.00;;;6.20;99.90;;;;;;6042088;23;20090;-80
2023/01/10 17:17:44;;;;;;;17.38;4.30;;;6.20;99.90;;;;;;6042334;23;20406;-82
2023/01/10 17:20:12;;;;;;;18.42;4.78;;;6.20;99.90;;;;;;6016949;23;20096;-84